• Join FlightAware (Why Join?)
  • Login
  • US Flag 
02:50PM EDT


 

Airport Tracker/Info


-or-


 

Live Flight TrackerFlight Track Log ✈ AMF1695 ✈ 15-Nov-2013 ✈ KGRI - KOMA

Flight Track Log - Related Links

Times and Time Zones

All times are in EST time to prevent confusion due to time zone crossing. See the AMF1695 flight status page for this flight to view local times or setup timezone preferences in your user account.

Time Position Orientation Groundspeed Altitude Reporting Facility
EST Latitude Longitude Course Direction KTS MPH feet Rate Location/Type
09:14PM 40.9947 -98.1758 75° East 165 190 5,600  Level Minneapolis Center
09:15PM 41.0150 -98.1147 66° East 175 201 6,800 1,080 Climbing Minneapolis Center
09:16PM 41.0303 -98.0500 73° East 182 209 7,900 960 Climbing Minneapolis Center
09:17PM 41.0511 -97.9872 66° East 185 213 8,900 540 Climbing Minneapolis Center
09:18PM 41.0717 -97.9161 69° East 201 231 9,100  Climbing Minneapolis Center
09:19PM 41.0878 -97.8208 77° East 219 252 9,000 -120 Descending Minneapolis Center
09:20PM 41.0981 -97.7400 80° East 222 255 8,900  Descending Minneapolis Center
09:21PM 41.0969 -97.6589 91° East 221 254 9,000  Climbing Minneapolis Center
09:22PM 41.0731 -97.5917 115° Southeast 213 245 9,000  Level Minneapolis Center
09:22PM 41.0922 -97.5806 24° Northeast 215 247 9,000  Level Minneapolis Center
09:23PM 41.0569 -97.4856 116° Southeast 211 243 9,000  Level Minneapolis Center
09:24PM 41.0736 -97.4267 69° East 213 245 9,000 60 Level Minneapolis Center
09:24PM 41.0592 -97.4081 136° Southeast 214 246 9,100 60 Climbing Minneapolis Center
09:25PM 41.0878 -97.3417 60° Northeast 215 247 9,100  Level Minneapolis Center
09:25PM 41.0736 -97.3239 137° Southeast 218 251 9,100  Level Minneapolis Center
09:26PM 41.1100 -97.2656 50° Northeast 218 251 9,100  Level Minneapolis Center
09:26PM 41.0986 -97.2497 134° Southeast 223 257 9,100 -120 Level Minneapolis Center
09:27PM 41.1306 -97.1892 55° Northeast 220 253 9,000 -120 Descending Minneapolis Center
09:27PM 41.1153 -97.1708 138° Southeast 220 253 9,000 60 Level Minneapolis Center
09:28PM 41.1386 -97.0992 67° East 220 253 9,100 60 Climbing Minneapolis Center
09:28PM 41.1194 -97.0931 166° South 216 249 9,100 -180 Level Minneapolis Center
09:29PM 41.1183 -97.0350 91° East 217 250 9,000 -120 Descending Minneapolis Center
09:29PM 41.1336 -97.0289 17° North 217 250 9,000 60 Level Minneapolis Center
09:30PM 41.1211 -96.9361 100° East 213 245 9,100 60 Climbing Minneapolis Center
09:30PM 41.1061 -96.9339 174° South 210 242 9,100  Level Minneapolis Center
09:31PM 41.1169 -96.8575 79° East 214 246 9,100  Level Minneapolis Center
09:31PM 41.1058 -96.8539 166° South 219 252 9,100 -120 Level Minneapolis Center
09:32PM 41.1100 -96.7817 86° East 219 252 9,000 -120 Descending Minneapolis Center
09:32PM 41.1214 -96.7778 14° North 217 250 9,000  Level Minneapolis Center
09:33PM 41.1139 -96.7092 98° East 220 253 9,000  Level Minneapolis Center
09:33PM 41.1258 -96.6964 39° Northeast 220 253 9,000 -420 Level Minneapolis Center
09:34PM 41.1194 -96.6258 97° East 225 259 8,600 -600 Descending Minneapolis Center
09:34PM 41.1294 -96.6133 43° Northeast 224 258 8,400 -840 Descending Minneapolis Center
09:35PM 41.1414 -96.5247 80° East 240 276 7,600 -900 Descending Minneapolis Center
09:36PM 41.1583 -96.4364 76° East 248 285 6,800 -720 Descending Minneapolis Center
09:36PM 41.1636 -96.4367 358° North 249 287 6,900 -840 Climbing Minneapolis Center
09:37PM 41.1903 -96.3347 71° East 247 284 5,800 -1,140 Descending Minneapolis Center
09:38PM 41.2019 -96.2656 77° East 246 283 4,900 -1,020 Descending Minneapolis Center
09:38PM 41.2097 -96.2492 58° Northeast 245 282 4,800 -720 Descending Minneapolis Center
09:39PM 41.2217 -96.1803 77° East 238 274 4,200 -720 Descending Minneapolis Center
09:39PM 41.2297 -96.1658 53° Northeast 242 278 4,100 -120 Descending Minneapolis Center
09:40PM 41.2597 -96.1233 47° Northeast 227 261 4,100 -120 Level Minneapolis Center
09:40PM 41.2753 -96.1042 43° Northeast 237 273 4,000 -600 Descending Minneapolis Center
09:41PM 41.2956 -96.0583 59° Northeast 216 249 3,500 -720 Descending Minneapolis Center
09:41PM 41.3047 -96.0358 62° Northeast 226 260 3,300 -900 Descending Minneapolis Center
09:42PM 41.3222 -95.9886 64° Northeast 202 232 2,600 -900 Descending Minneapolis Center
09:42PM 41.3325 -95.9597 65° Northeast 209 241 2,400 -780 Descending Minneapolis Center
09:43PM 41.3264 -95.9181 101° East 153 176 1,600 -600 Descending Minneapolis Center
09:45PM 41.3033 -95.8961 144° Southeast 135 155 1,200 -420 Descending Minneapolis Center
09:46PM 41.3032 -95.8941 96° East  Level Estimated